Wan Hai 510 — 9VJJ8 — position and weather

sailwx.info

Track history (hours):
 
Tides and Currents Weather Stations Pressure Air Temp Water Temp Dewpoint Dewpoint Depression Visibility Wind Speed Wind Dir Waves Ship Positions

Wan Hai 510

Last reported at 2015-Jul-02 09:33 UTC. Time now 2015-Jul-05 04:22 UTC.
Position N 01°14' E 103°59'.

Length 269 m; draft 9.3 m.

Type: Cargo ship. MMSI: 565741000.

Date/timePositionNaut miles runAvg speedWind from/ knotsBaromVisibWave heightAir tempDewpointWater temp
2015-Jul-02 09:33N 01°14' E 103°59'9 9.0
2015-Jul-02 08:33N 01°16' E 103°50'1 0.5
2015-Jul-02 07:27N 01°16' E 103°50'0 0.0
2015-Jul-02 06:33N 01°16' E 103°50'0 0.0
2015-Jul-02 05:33N 01°16' E 103°50'0 0.0
2015-Jul-02 04:33N 01°16' E 103°50'0 0.0
2015-Jul-02 03:33N 01°16' E 103°50'0 0.0
2015-Jul-02 02:33N 01°16' E 103°50'0 0.0
2015-Jul-02 01:33N 01°16' E 103°50'0 0.0
2015-Jul-02 00:33N 01°16' E 103°50'0 0.0
2015-Jul-01 23:27N 01°16' E 103°50'0 0.0
2015-Jul-01 22:33N 01°16' E 103°50'0 0.0
2015-Jul-01 21:33N 01°16' E 103°50'0 0.0
2015-Jul-01 20:33N 01°16' E 103°50'0 0.0
2015-Jul-01 19:33N 01°16' E 103°50'0 0.0
2015-Jul-01 18:33N 01°16' E 103°50'0 0.0
2015-Jul-01 17:33N 01°16' E 103°50'2 1.8
2015-Jul-01 16:33N 01°15' E 103°51'3 3.0
2015-Jul-01 15:33N 01°14' E 103°54'8 8.3
2015-Jul-01 14:33N 01°09' E 103°47'  
Track history (hours):
 
Tides and Currents Weather Stations Pressure Air Temp Water Temp Dewpoint Dewpoint Depression Visibility Wind Speed Wind Dir Waves Ship Positions

Wan Hai 510

Last reported at 2015-Jul-02 09:33 UTC. Time now 2015-Jul-05 04:22 UTC.
Position N 01°14' E 103°59'.

Length 269 m; draft 9.3 m.

Type: Cargo ship. MMSI: 565741000.

Date/timePositionNaut miles runAvg speedWind from/ knotsBaromVisibWave heightAir tempDewpointWater temp
2015-Jul-02 09:33N 01°14' E 103°59'9 9.0
2015-Jul-02 08:33N 01°16' E 103°50'1 0.5
2015-Jul-02 07:27N 01°16' E 103°50'0 0.0
2015-Jul-02 06:33N 01°16' E 103°50'0 0.0
2015-Jul-02 05:33N 01°16' E 103°50'0 0.0
2015-Jul-02 04:33N 01°16' E 103°50'0 0.0
2015-Jul-02 03:33N 01°16' E 103°50'0 0.0
2015-Jul-02 02:33N 01°16' E 103°50'0 0.0
2015-Jul-02 01:33N 01°16' E 103°50'0 0.0
2015-Jul-02 00:33N 01°16' E 103°50'0 0.0
2015-Jul-01 23:27N 01°16' E 103°50'0 0.0
2015-Jul-01 22:33N 01°16' E 103°50'0 0.0
2015-Jul-01 21:33N 01°16' E 103°50'0 0.0
2015-Jul-01 20:33N 01°16' E 103°50'0 0.0
2015-Jul-01 19:33N 01°16' E 103°50'0 0.0
2015-Jul-01 18:33N 01°16' E 103°50'0 0.0
2015-Jul-01 17:33N 01°16' E 103°50'2 1.8
2015-Jul-01 16:33N 01°15' E 103°51'3 3.0
2015-Jul-01 15:33N 01°14' E 103°54'8 8.3
2015-Jul-01 14:33N 01°09' E 103°47'  

Dump ship's entire track history